Terminal Aerodrome Forecast
Issued by NWS Twin Cities, MN

Home | Current Version | Previous Version | Graphics & Text | Print | Product List | Glossary On
Versions: 1 2 3 4 5 6 7 8 9 10 11 12 13 14 15
000
FTUS43 KMPX 222353
TAFEAU
TAF
KEAU 222353Z 2300/2324 21008KT P6SM OVC015
     FM230600 20010KT P6SM SCT100 BKN150
     FM230800 21012KT P6SM OVC070
     FM231400 22012KT 6SM BR VCSH SCT020 OVC040 PROB30 2314/2318
      -FZRA OVC020=

USA.gov is the U.S. government's official web portal to all federal, state and local government web resources and services.